createdAt,value
2022-08-12T00:00:00.187Z,1004.67
2022-08-12T00:05:00.121Z,1004.54
2022-08-12T00:10:00.193Z,1004.63
2022-08-12T00:15:00.121Z,1004.56
2022-08-12T00:20:00.113Z,1004.63
2022-08-12T00:25:00.089Z,1004.6
2022-08-12T00:30:00.169Z,1004.65
2022-08-12T00:35:00.099Z,1004.64
2022-08-12T00:40:00.134Z,1004.59
2022-08-12T00:45:00.105Z,1004.68
2022-08-12T00:50:00.135Z,1004.61
2022-08-12T00:55:00.128Z,1004.59
2022-08-12T01:00:00.233Z,1004.68
2022-08-12T01:05:00.107Z,1004.67
2022-08-12T01:10:00.110Z,1004.78
2022-08-12T01:15:00.139Z,1004.71
2022-08-12T01:20:00.095Z,1004.76
2022-08-12T01:25:00.097Z,1004.81
2022-08-12T01:30:00.145Z,1004.8
2022-08-12T01:35:00.112Z,1004.79
2022-08-12T01:40:31.931Z,1004.75
2022-08-12T01:45:00.104Z,1004.61
2022-08-12T01:50:00.151Z,1004.73
2022-08-12T01:55:00.101Z,1004.74
2022-08-12T02:00:00.193Z,1004.76
2022-08-12T02:05:00.093Z,1004.7
2022-08-12T02:10:00.129Z,1004.64
2022-08-12T02:15:00.118Z,1004.61
2022-08-12T02:20:00.139Z,1004.52
2022-08-12T02:25:00.094Z,1004.54
2022-08-12T02:30:00.125Z,1004.54
2022-08-12T02:35:00.111Z,1004.61
2022-08-12T02:40:00.242Z,1004.66
2022-08-12T02:45:00.108Z,1004.63
2022-08-12T02:50:00.107Z,1004.53
2022-08-12T02:55:00.091Z,1004.42
2022-08-12T03:00:00.183Z,1004.41
2022-08-12T03:05:00.104Z,1004.39
2022-08-12T03:10:04.969Z,1004.38
2022-08-12T03:15:00.132Z,1004.42
2022-08-12T03:20:08.580Z,1004.5
2022-08-12T03:25:00.098Z,1004.48
2022-08-12T03:30:00.140Z,1004.42
2022-08-12T03:35:00.085Z,1004.49
2022-08-12T03:40:00.194Z,1004.46
2022-08-12T03:45:00.105Z,1004.5
2022-08-12T03:50:00.094Z,1004.58
2022-08-12T03:55:00.084Z,1004.58
2022-08-12T04:00:00.109Z,1004.6
2022-08-12T04:05:00.085Z,1004.57
2022-08-12T04:10:00.114Z,1004.61
2022-08-12T04:15:00.122Z,1004.66
2022-08-12T04:20:00.130Z,1004.47
2022-08-12T04:25:00.084Z,1004.5
2022-08-12T04:30:16.078Z,1004.53
2022-08-12T04:35:00.090Z,1004.62
2022-08-12T04:40:00.096Z,1004.52
2022-08-12T04:45:00.087Z,1004.52
2022-08-12T04:50:00.086Z,1004.65
2022-08-12T04:55:00.095Z,1004.57
2022-08-12T05:00:00.133Z,1004.64
2022-08-12T05:05:00.912Z,1004.63
2022-08-12T05:10:02.112Z,1004.67
2022-08-12T05:15:00.085Z,1004.74
2022-08-12T05:20:00.090Z,1004.66
2022-08-12T05:25:00.090Z,1004.53
2022-08-12T05:30:05.922Z,1004.66
2022-08-12T05:35:00.106Z,1004.66
2022-08-12T05:40:00.201Z,1004.71
2022-08-12T05:45:00.102Z,1004.66
2022-08-12T05:50:00.094Z,1004.7
2022-08-12T05:55:00.097Z,1004.76
2022-08-12T06:00:00.150Z,1004.77
2022-08-12T06:05:00.094Z,1004.8
2022-08-12T06:10:00.109Z,1004.9
2022-08-12T06:15:00.108Z,1004.95
2022-08-12T06:20:22.146Z,1004.88
2022-08-12T06:25:00.095Z,1004.91
2022-08-12T06:30:07.860Z,1004.99
2022-08-12T06:35:24.503Z,1005.1
2022-08-12T06:40:03.498Z,1005.01
2022-08-12T06:45:00.125Z,1005.02
2022-08-12T06:50:00.112Z,1004.97
2022-08-12T06:55:00.105Z,1005.01
2022-08-12T07:00:00.137Z,1005.08
2022-08-12T07:05:00.104Z,1005.08
2022-08-12T07:10:05.630Z,1004.96
2022-08-12T07:15:00.105Z,1005.09
2022-08-12T07:20:04.093Z,1005.03
2022-08-12T07:25:00.110Z,1005.03
2022-08-12T07:30:04.467Z,1005.1
2022-08-12T07:35:00.096Z,1004.87
2022-08-12T07:40:01.180Z,1005.05
2022-08-12T07:45:00.132Z,1005.03
2022-08-12T07:50:03.933Z,1005.04
2022-08-12T07:55:00.083Z,1005.05
2022-08-12T08:00:00.133Z,1005.02
2022-08-12T08:05:00.089Z,1005.01
2022-08-12T08:10:00.375Z,1004.99
2022-08-12T08:15:00.099Z,1005.08
2022-08-12T08:20:03.432Z,1005.14
2022-08-12T08:25:00.090Z,1005.07
2022-08-12T08:30:00.163Z,1005.13
2022-08-12T08:35:00.081Z,1005.13
2022-08-12T08:40:00.192Z,1005
2022-08-12T08:45:00.081Z,1005.11
2022-08-12T08:50:00.115Z,1005.05
2022-08-12T08:55:00.090Z,1004.99
2022-08-12T09:00:00.206Z,1005.01
2022-08-12T09:05:10.444Z,1004.94
2022-08-12T09:10:01.845Z,1005
2022-08-12T09:15:00.095Z,1004.98
2022-08-12T09:20:00.087Z,1004.97
2022-08-12T09:25:00.100Z,1004.88
2022-08-12T09:30:09.394Z,1004.92
2022-08-12T09:35:00.100Z,1004.89
2022-08-12T09:40:03.017Z,1004.79
2022-08-12T09:45:17.698Z,1004.85
2022-08-12T09:50:00.086Z,1004.85
2022-08-12T09:55:02.563Z,1004.78
2022-08-12T10:00:14.205Z,1004.71
2022-08-12T10:05:00.105Z,1004.66
2022-08-12T10:10:00.111Z,1004.52
2022-08-12T10:15:00.107Z,1004.54
2022-08-12T10:20:01.315Z,1004.4
2022-08-12T10:25:00.112Z,1004.42
2022-08-12T10:30:02.238Z,1004.3
2022-08-12T10:35:00.083Z,1004.47
2022-08-12T10:40:08.407Z,1004.27
2022-08-12T10:45:00.102Z,1004.37
2022-08-12T10:50:01.863Z,1004.26
2022-08-12T10:55:00.094Z,1004.17
2022-08-12T11:00:29.927Z,1004.16
2022-08-12T11:05:47.337Z,1004.07
2022-08-12T11:10:02.343Z,1004.09
2022-08-12T11:15:00.091Z,1003.98
2022-08-12T11:20:00.096Z,1004.01
2022-08-12T11:25:00.106Z,1004.03
2022-08-12T11:30:00.625Z,1004.05
2022-08-12T11:35:00.097Z,1003.91
2022-08-12T11:40:00.069Z,1003.93
2022-08-12T11:45:00.073Z,1003.84
2022-08-12T11:50:00.070Z,1003.86
2022-08-12T11:55:00.065Z,1003.93
2022-08-12T12:05:00.057Z,1003.8
2022-08-12T12:10:00.085Z,1003.7
2022-08-12T12:15:03.268Z,1003.77
2022-08-12T12:20:00.076Z,1003.69
2022-08-12T12:25:09.078Z,1003.62
2022-08-12T12:30:14.682Z,1003.7
2022-08-12T12:35:13.313Z,1003.62
2022-08-12T12:40:00.161Z,1003.65
2022-08-12T12:45:00.102Z,1003.59
2022-08-12T12:50:00.087Z,1003.48
2022-08-12T12:55:00.077Z,1003.52
2022-08-12T13:00:00.098Z,1003.55
2022-08-12T13:05:00.099Z,1003.46
2022-08-12T13:10:01.930Z,1003.55
2022-08-12T13:15:00.115Z,1003.47
2022-08-12T13:20:00.090Z,1003.43
2022-08-12T13:25:00.078Z,1003.51
2022-08-12T13:30:03.752Z,1003.46
2022-08-12T13:35:04.085Z,1003.4
2022-08-12T13:40:00.088Z,1003.44
2022-08-12T13:45:02.891Z,1003.47
2022-08-12T13:50:00.123Z,1003.22
2022-08-12T13:55:00.091Z,1003.14
2022-08-12T14:00:00.641Z,1003.2
2022-08-12T14:05:00.092Z,1003.13
2022-08-12T14:10:00.135Z,1003.16
2022-08-12T14:15:00.634Z,1002.98
2022-08-12T14:20:01.307Z,1003.04
2022-08-12T14:25:00.452Z,1002.9
2022-08-12T14:30:06.312Z,1002.94
2022-08-12T14:35:00.114Z,1002.79
2022-08-12T14:40:00.093Z,1002.67
2022-08-12T14:45:01.178Z,1002.84
2022-08-12T14:50:03.461Z,1002.7
2022-08-12T15:00:00.326Z,1002.64
2022-08-12T15:05:00.098Z,1002.71
2022-08-12T15:10:00.105Z,1002.68
2022-08-12T15:15:00.098Z,1002.67
2022-08-12T15:20:12.433Z,1002.55
2022-08-12T15:25:00.092Z,1002.49
2022-08-12T15:30:00.127Z,1002.43
2022-08-12T15:35:00.087Z,1002.5
2022-08-12T15:40:00.965Z,1002.47
2022-08-12T15:45:00.102Z,1002.31
2022-08-12T15:50:01.301Z,1002.31
2022-08-12T15:55:03.053Z,1002.23
2022-08-12T16:00:04.649Z,1002.28
2022-08-12T16:05:00.082Z,1002.33
2022-08-12T16:10:06.519Z,1002.28
2022-08-12T16:15:00.091Z,1002.24
2022-08-12T16:20:02.568Z,1002.24
2022-08-12T16:25:00.095Z,1002.26
2022-08-12T16:30:00.104Z,1002.17
2022-08-12T16:35:00.521Z,1002.21
2022-08-12T16:40:01.857Z,1002.2
2022-08-12T16:45:00.084Z,1002.08
2022-08-12T16:50:00.080Z,1002.04
2022-08-12T16:55:00.085Z,1002.13
2022-08-12T17:00:00.130Z,1002.05
2022-08-12T17:05:00.088Z,1001.95
2022-08-12T17:10:00.089Z,1001.93
2022-08-12T17:15:00.665Z,1001.87
2022-08-12T17:20:30.813Z,1001.96
2022-08-12T17:25:00.094Z,1002.06
2022-08-12T17:30:03.400Z,1001.96
2022-08-12T17:35:00.354Z,1001.93
2022-08-12T17:40:07.724Z,1001.93
2022-08-12T17:45:00.088Z,1001.95
2022-08-12T17:50:01.626Z,1001.89
2022-08-12T17:55:00.091Z,1001.83
2022-08-12T18:00:00.141Z,1001.88
2022-08-12T18:05:05.581Z,1001.91
2022-08-12T18:10:00.084Z,1001.91
2022-08-12T18:15:00.091Z,1001.88
2022-08-12T18:20:04.581Z,1001.94
2022-08-12T18:25:02.500Z,1001.93
2022-08-12T18:30:01.921Z,1001.94
2022-08-12T18:35:05.288Z,1002.01
2022-08-12T18:40:00.131Z,1002.06
2022-08-12T18:45:00.100Z,1002.1
2022-08-12T18:50:00.106Z,1002.14
2022-08-12T18:55:02.713Z,1002.07
2022-08-12T19:00:06.678Z,1002.18
2022-08-12T19:05:00.894Z,1002.2
2022-08-12T19:10:04.091Z,1002.2
2022-08-12T19:15:04.013Z,1002.24
2022-08-12T19:20:00.077Z,1002.22
2022-08-12T19:25:00.090Z,1002.34
2022-08-12T19:30:06.042Z,1002.34
2022-08-12T19:36:00.865Z,1002.35
2022-08-12T19:40:08.388Z,1002.3
2022-08-12T19:45:00.119Z,1002.29
2022-08-12T19:50:00.093Z,1002.26
2022-08-12T19:55:00.097Z,1002.21
2022-08-12T20:00:03.288Z,1002.27
2022-08-12T20:05:25.432Z,1002.26
2022-08-12T20:10:00.103Z,1002.26
2022-08-12T20:15:00.107Z,1002.31
2022-08-12T20:20:05.719Z,1002.3
2022-08-12T20:25:00.858Z,1002.22
2022-08-12T20:30:00.138Z,1002.2
2022-08-12T20:35:00.082Z,1002.15
2022-08-12T20:40:04.423Z,1002.16
2022-08-12T20:45:00.130Z,1002.23
2022-08-12T20:50:00.213Z,1002.2
2022-08-12T20:55:00.098Z,1002.21
2022-08-12T21:00:00.140Z,1002.25
2022-08-12T21:05:00.091Z,1002.23
2022-08-12T21:10:00.096Z,1002.15
2022-08-12T21:15:16.872Z,1002.19
2022-08-12T21:20:00.075Z,1002.15
2022-08-12T21:25:00.116Z,1002.2
2022-08-12T21:30:00.156Z,1002.24
2022-08-12T21:35:00.111Z,1002.21
2022-08-12T21:40:00.214Z,1002.25
2022-08-12T21:45:45.209Z,1002.26
2022-08-12T21:50:02.799Z,1002.34
2022-08-12T21:55:00.084Z,1002.36
2022-08-12T22:00:00.160Z,1002.2
2022-08-12T22:05:00.084Z,1002.2
2022-08-12T22:10:00.083Z,1002.32
2022-08-12T22:15:00.122Z,1002.2
2022-08-12T22:20:00.099Z,1002.28
2022-08-12T22:25:00.095Z,1002.27
2022-08-12T22:30:01.004Z,1002.35
2022-08-12T22:35:00.080Z,1002.28
2022-08-12T22:40:00.203Z,1002.16
2022-08-12T22:45:00.088Z,1002.17
2022-08-12T22:50:00.482Z,1002.22
2022-08-12T22:55:03.080Z,1002.22
2022-08-12T23:00:00.178Z,1002.22
2022-08-12T23:05:00.077Z,1002.12
2022-08-12T23:10:00.076Z,1002.17
2022-08-12T23:15:00.108Z,1002.14
2022-08-12T23:20:00.094Z,1002.08
2022-08-12T23:25:00.347Z,1002.12
2022-08-12T23:30:18.111Z,1002.12
2022-08-12T23:35:00.089Z,1002.12
2022-08-12T23:40:06.999Z,1002.09
2022-08-12T23:45:00.083Z,1002.15
2022-08-12T23:50:02.244Z,1002.17
2022-08-12T23:55:05.024Z,1002.06
